sensor_id;sensor_type;location;lat;lon;timestamp;P1;durP1;ratioP1;P2;durP2;ratioP2
10277;SDS011;5184;51.376;7.148;2023-04-25T00:01:25;11.53;;;5.63;;
10277;SDS011;5184;51.376;7.148;2023-04-25T00:03:51;11.63;;;5.00;;
10277;SDS011;5184;51.376;7.148;2023-04-25T00:06:18;9.93;;;5.20;;
10277;SDS011;5184;51.376;7.148;2023-04-25T00:08:44;10.30;;;6.10;;
10277;SDS011;5184;51.376;7.148;2023-04-25T00:11:11;9.63;;;5.03;;
10277;SDS011;5184;51.376;7.148;2023-04-25T00:13:38;11.67;;;5.43;;
10277;SDS011;5184;51.376;7.148;2023-04-25T00:16:06;11.97;;;5.87;;
10277;SDS011;5184;51.376;7.148;2023-04-25T00:18:33;15.40;;;6.43;;
10277;SDS011;5184;51.376;7.148;2023-04-25T00:21:00;13.40;;;5.97;;
10277;SDS011;5184;51.376;7.148;2023-04-25T00:23:27;11.10;;;5.57;;
10277;SDS011;5184;51.376;7.148;2023-04-25T00:25:55;14.13;;;5.37;;
10277;SDS011;5184;51.376;7.148;2023-04-25T00:28:22;11.80;;;5.30;;
10277;SDS011;5184;51.376;7.148;2023-04-25T00:30:50;13.33;;;5.33;;
10277;SDS011;5184;51.376;7.148;2023-04-25T00:33:17;8.43;;;5.40;;
10277;SDS011;5184;51.376;7.148;2023-04-25T00:35:44;10.07;;;5.33;;
10277;SDS011;5184;51.376;7.148;2023-04-25T00:38:12;10.27;;;4.83;;
10277;SDS011;5184;51.376;7.148;2023-04-25T00:40:39;12.50;;;5.33;;
10277;SDS011;5184;51.376;7.148;2023-04-25T00:43:07;12.13;;;5.40;;
10277;SDS011;5184;51.376;7.148;2023-04-25T00:45:33;12.90;;;5.43;;
10277;SDS011;5184;51.376;7.148;2023-04-25T00:48:00;10.07;;;5.13;;
10277;SDS011;5184;51.376;7.148;2023-04-25T00:50:26;10.10;;;5.67;;
10277;SDS011;5184;51.376;7.148;2023-04-25T00:52:53;9.13;;;4.93;;
10277;SDS011;5184;51.376;7.148;2023-04-25T00:55:19;9.40;;;5.13;;
10277;SDS011;5184;51.376;7.148;2023-04-25T00:57:46;13.23;;;5.73;;
10277;SDS011;5184;51.376;7.148;2023-04-25T01:00:13;7.70;;;5.00;;
10277;SDS011;5184;51.376;7.148;2023-04-25T01:02:40;7.47;;;4.90;;
10277;SDS011;5184;51.376;7.148;2023-04-25T01:05:06;10.90;;;5.43;;
10277;SDS011;5184;51.376;7.148;2023-04-25T01:07:34;10.80;;;5.60;;
10277;SDS011;5184;51.376;7.148;2023-04-25T01:10:01;11.53;;;5.50;;
10277;SDS011;5184;51.376;7.148;2023-04-25T01:12:28;12.77;;;6.40;;
10277;SDS011;5184;51.376;7.148;2023-04-25T01:14:55;12.27;;;5.40;;
10277;SDS011;5184;51.376;7.148;2023-04-25T01:17:22;7.83;;;5.37;;
10277;SDS011;5184;51.376;7.148;2023-04-25T01:19:50;10.23;;;6.47;;
10277;SDS011;5184;51.376;7.148;2023-04-25T01:22:17;10.90;;;6.70;;
10277;SDS011;5184;51.376;7.148;2023-04-25T01:24:44;11.17;;;7.03;;
10277;SDS011;5184;51.376;7.148;2023-04-25T01:27:10;11.60;;;6.70;;
10277;SDS011;5184;51.376;7.148;2023-04-25T01:29:37;16.33;;;6.77;;
10277;SDS011;5184;51.376;7.148;2023-04-25T01:32:04;11.93;;;6.53;;
10277;SDS011;5184;51.376;7.148;2023-04-25T01:34:31;13.93;;;6.70;;
10277;SDS011;5184;51.376;7.148;2023-04-25T01:36:59;11.00;;;6.67;;
10277;SDS011;5184;51.376;7.148;2023-04-25T01:39:25;11.77;;;6.33;;
10277;SDS011;5184;51.376;7.148;2023-04-25T01:41:51;13.17;;;7.23;;
10277;SDS011;5184;51.376;7.148;2023-04-25T01:44:18;12.90;;;6.97;;
10277;SDS011;5184;51.376;7.148;2023-04-25T01:46:45;15.63;;;7.53;;
10277;SDS011;5184;51.376;7.148;2023-04-25T01:49:13;12.07;;;7.43;;
10277;SDS011;5184;51.376;7.148;2023-04-25T01:51:40;11.37;;;6.87;;
10277;SDS011;5184;51.376;7.148;2023-04-25T01:54:07;13.77;;;7.53;;
10277;SDS011;5184;51.376;7.148;2023-04-25T01:56:36;15.73;;;8.37;;
10277;SDS011;5184;51.376;7.148;2023-04-25T01:59:00;15.60;;;7.80;;
10277;SDS011;5184;51.376;7.148;2023-04-25T02:01:27;11.10;;;7.17;;
10277;SDS011;5184;51.376;7.148;2023-04-25T02:03:55;12.73;;;7.10;;
10277;SDS011;5184;51.376;7.148;2023-04-25T02:06:22;13.97;;;6.93;;
10277;SDS011;5184;51.376;7.148;2023-04-25T02:08:49;16.47;;;7.23;;
10277;SDS011;5184;51.376;7.148;2023-04-25T02:11:17;13.50;;;7.93;;
10277;SDS011;5184;51.376;7.148;2023-04-25T02:13:44;13.03;;;7.53;;
10277;SDS011;5184;51.376;7.148;2023-04-25T02:16:11;13.60;;;7.83;;
10277;SDS011;5184;51.376;7.148;2023-04-25T02:18:39;15.93;;;7.73;;
10277;SDS011;5184;51.376;7.148;2023-04-25T02:21:05;13.90;;;6.83;;
10277;SDS011;5184;51.376;7.148;2023-04-25T02:23:32;15.40;;;7.97;;
10277;SDS011;5184;51.376;7.148;2023-04-25T02:25:58;13.20;;;6.90;;
10277;SDS011;5184;51.376;7.148;2023-04-25T02:28:25;12.80;;;7.40;;
10277;SDS011;5184;51.376;7.148;2023-04-25T02:30:52;13.77;;;7.17;;
10277;SDS011;5184;51.376;7.148;2023-04-25T02:33:18;12.87;;;7.10;;
10277;SDS011;5184;51.376;7.148;2023-04-25T02:35:46;14.20;;;6.43;;
10277;SDS011;5184;51.376;7.148;2023-04-25T02:38:13;13.40;;;7.37;;
10277;SDS011;5184;51.376;7.148;2023-04-25T02:40:40;11.97;;;6.53;;
10277;SDS011;5184;51.376;7.148;2023-04-25T02:43:08;13.20;;;7.00;;
10277;SDS011;5184;51.376;7.148;2023-04-25T02:45:34;13.33;;;6.47;;
10277;SDS011;5184;51.376;7.148;2023-04-25T02:48:02;9.77;;;6.83;;
10277;SDS011;5184;51.376;7.148;2023-04-25T02:50:28;17.53;;;7.97;;
10277;SDS011;5184;51.376;7.148;2023-04-25T02:52:54;12.40;;;7.13;;
10277;SDS011;5184;51.376;7.148;2023-04-25T02:55:21;13.43;;;7.07;;
10277;SDS011;5184;51.376;7.148;2023-04-25T02:57:48;12.40;;;7.10;;
10277;SDS011;5184;51.376;7.148;2023-04-25T03:00:15;11.37;;;7.13;;
10277;SDS011;5184;51.376;7.148;2023-04-25T03:02:41;12.33;;;7.50;;
10277;SDS011;5184;51.376;7.148;2023-04-25T03:05:08;15.93;;;7.07;;
10277;SDS011;5184;51.376;7.148;2023-04-25T03:07:34;10.90;;;6.80;;
10277;SDS011;5184;51.376;7.148;2023-04-25T03:10:01;9.73;;;6.53;;
10277;SDS011;5184;51.376;7.148;2023-04-25T03:12:28;13.20;;;7.80;;
10277;SDS011;5184;51.376;7.148;2023-04-25T03:14:54;16.53;;;7.27;;
10277;SDS011;5184;51.376;7.148;2023-04-25T03:17:21;14.97;;;7.33;;
10277;SDS011;5184;51.376;7.148;2023-04-25T03:19:47;14.93;;;7.80;;
10277;SDS011;5184;51.376;7.148;2023-04-25T03:22:15;17.83;;;8.77;;
10277;SDS011;5184;51.376;7.148;2023-04-25T03:24:42;18.63;;;8.40;;
10277;SDS011;5184;51.376;7.148;2023-04-25T03:27:09;15.13;;;8.70;;
10277;SDS011;5184;51.376;7.148;2023-04-25T03:29:37;14.27;;;8.40;;
10277;SDS011;5184;51.376;7.148;2023-04-25T03:32:03;19.53;;;9.40;;
10277;SDS011;5184;51.376;7.148;2023-04-25T03:34:31;19.07;;;9.67;;
10277;SDS011;5184;51.376;7.148;2023-04-25T03:36:58;13.00;;;9.13;;
10277;SDS011;5184;51.376;7.148;2023-04-25T03:39:26;16.80;;;9.10;;
10277;SDS011;5184;51.376;7.148;2023-04-25T03:41:53;19.27;;;10.10;;
10277;SDS011;5184;51.376;7.148;2023-04-25T03:44:20;17.30;;;9.53;;
10277;SDS011;5184;51.376;7.148;2023-04-25T03:46:47;21.83;;;10.13;;
10277;SDS011;5184;51.376;7.148;2023-04-25T03:49:15;17.40;;;10.00;;
10277;SDS011;5184;51.376;7.148;2023-04-25T03:51:42;21.13;;;10.53;;
10277;SDS011;5184;51.376;7.148;2023-04-25T03:54:08;17.47;;;9.47;;
10277;SDS011;5184;51.376;7.148;2023-04-25T03:56:35;17.53;;;10.93;;
10277;SDS011;5184;51.376;7.148;2023-04-25T03:59:01;20.20;;;9.67;;
10277;SDS011;5184;51.376;7.148;2023-04-25T04:01:28;17.53;;;11.00;;
10277;SDS011;5184;51.376;7.148;2023-04-25T04:03:55;21.87;;;10.87;;
10277;SDS011;5184;51.376;7.148;2023-04-25T04:06:23;18.37;;;10.27;;
10277;SDS011;5184;51.376;7.148;2023-04-25T04:08:49;19.17;;;10.97;;
10277;SDS011;5184;51.376;7.148;2023-04-25T04:11:16;18.77;;;11.73;;
10277;SDS011;5184;51.376;7.148;2023-04-25T04:13:42;21.67;;;12.47;;
10277;SDS011;5184;51.376;7.148;2023-04-25T04:16:10;19.87;;;12.40;;
10277;SDS011;5184;51.376;7.148;2023-04-25T04:18:37;16.73;;;11.73;;
10277;SDS011;5184;51.376;7.148;2023-04-25T04:21:05;22.37;;;12.13;;
10277;SDS011;5184;51.376;7.148;2023-04-25T04:23:32;19.03;;;11.53;;
10277;SDS011;5184;51.376;7.148;2023-04-25T04:25:59;22.80;;;12.87;;
10277;SDS011;5184;51.376;7.148;2023-04-25T04:28:26;21.30;;;11.87;;
10277;SDS011;5184;51.376;7.148;2023-04-25T04:30:52;19.00;;;11.30;;
10277;SDS011;5184;51.376;7.148;2023-04-25T04:33:19;18.23;;;12.30;;
10277;SDS011;5184;51.376;7.148;2023-04-25T04:35:47;19.27;;;11.07;;
10277;SDS011;5184;51.376;7.148;2023-04-25T04:38:14;20.60;;;11.27;;
10277;SDS011;5184;51.376;7.148;2023-04-25T04:40:41;23.33;;;11.23;;
10277;SDS011;5184;51.376;7.148;2023-04-25T04:43:07;23.83;;;11.13;;
10277;SDS011;5184;51.376;7.148;2023-04-25T04:45:34;18.00;;;10.10;;
10277;SDS011;5184;51.376;7.148;2023-04-25T04:48:00;17.53;;;10.77;;
10277;SDS011;5184;51.376;7.148;2023-04-25T04:50:27;21.37;;;11.23;;
10277;SDS011;5184;51.376;7.148;2023-04-25T04:52:53;21.67;;;11.00;;
10277;SDS011;5184;51.376;7.148;2023-04-25T04:55:20;17.43;;;9.90;;
10277;SDS011;5184;51.376;7.148;2023-04-25T04:57:47;18.53;;;9.90;;
10277;SDS011;5184;51.376;7.148;2023-04-25T05:00:14;19.50;;;10.57;;
10277;SDS011;5184;51.376;7.148;2023-04-25T05:02:41;19.57;;;9.83;;
10277;SDS011;5184;51.376;7.148;2023-04-25T05:05:07;13.87;;;7.47;;
10277;SDS011;5184;51.376;7.148;2023-04-25T05:07:34;13.60;;;7.23;;
10277;SDS011;5184;51.376;7.148;2023-04-25T05:10:01;15.43;;;8.63;;
10277;SDS011;5184;51.376;7.148;2023-04-25T05:12:28;16.00;;;7.40;;
10277;SDS011;5184;51.376;7.148;2023-04-25T05:14:55;12.13;;;6.63;;
10277;SDS011;5184;51.376;7.148;2023-04-25T05:17:21;19.33;;;7.30;;
10277;SDS011;5184;51.376;7.148;2023-04-25T05:19:48;13.93;;;7.50;;
10277;SDS011;5184;51.376;7.148;2023-04-25T05:22:14;15.97;;;7.97;;
10277;SDS011;5184;51.376;7.148;2023-04-25T05:24:41;15.20;;;8.00;;
10277;SDS011;5184;51.376;7.148;2023-04-25T05:27:08;18.57;;;9.17;;
10277;SDS011;5184;51.376;7.148;2023-04-25T05:29:36;18.30;;;8.77;;
10277;SDS011;5184;51.376;7.148;2023-04-25T05:32:04;15.67;;;9.43;;
10277;SDS011;5184;51.376;7.148;2023-04-25T05:34:30;19.47;;;8.93;;
10277;SDS011;5184;51.376;7.148;2023-04-25T05:36:56;19.90;;;9.03;;
10277;SDS011;5184;51.376;7.148;2023-04-25T05:39:24;18.90;;;8.13;;
10277;SDS011;5184;51.376;7.148;2023-04-25T05:41:51;15.87;;;7.30;;
10277;SDS011;5184;51.376;7.148;2023-04-25T05:44:18;16.43;;;7.80;;
10277;SDS011;5184;51.376;7.148;2023-04-25T05:46:44;23.53;;;8.10;;
10277;SDS011;5184;51.376;7.148;2023-04-25T05:49:12;18.17;;;7.57;;
10277;SDS011;5184;51.376;7.148;2023-04-25T05:51:39;12.07;;;6.30;;
10277;SDS011;5184;51.376;7.148;2023-04-25T05:54:06;21.30;;;7.07;;
10277;SDS011;5184;51.376;7.148;2023-04-25T05:56:34;16.23;;;7.43;;
10277;SDS011;5184;51.376;7.148;2023-04-25T05:59:01;20.13;;;7.40;;
10277;SDS011;5184;51.376;7.148;2023-04-25T06:01:28;19.07;;;7.20;;
10277;SDS011;5184;51.376;7.148;2023-04-25T06:03:56;24.87;;;7.70;;
10277;SDS011;5184;51.376;7.148;2023-04-25T06:06:23;14.57;;;7.13;;
10277;SDS011;5184;51.376;7.148;2023-04-25T06:08:50;16.10;;;6.83;;
10277;SDS011;5184;51.376;7.148;2023-04-25T06:11:18;17.00;;;7.07;;
10277;SDS011;5184;51.376;7.148;2023-04-25T06:13:45;15.53;;;6.40;;
10277;SDS011;5184;51.376;7.148;2023-04-25T06:16:11;16.80;;;7.43;;
10277;SDS011;5184;51.376;7.148;2023-04-25T06:18:38;15.43;;;6.47;;
10277;SDS011;5184;51.376;7.148;2023-04-25T06:21:04;18.20;;;7.07;;
10277;SDS011;5184;51.376;7.148;2023-04-25T06:23:31;15.40;;;6.90;;
10277;SDS011;5184;51.376;7.148;2023-04-25T06:25:58;13.77;;;6.17;;
10277;SDS011;5184;51.376;7.148;2023-04-25T06:28:25;16.70;;;6.93;;
10277;SDS011;5184;51.376;7.148;2023-04-25T06:30:53;16.17;;;6.70;;
10277;SDS011;5184;51.376;7.148;2023-04-25T06:33:20;17.20;;;6.50;;
10277;SDS011;5184;51.376;7.148;2023-04-25T06:35:48;15.93;;;6.43;;
10277;SDS011;5184;51.376;7.148;2023-04-25T06:38:15;12.60;;;6.20;;
10277;SDS011;5184;51.376;7.148;2023-04-25T06:40:41;18.53;;;6.73;;
10277;SDS011;5184;51.376;7.148;2023-04-25T06:43:07;14.50;;;7.10;;
10277;SDS011;5184;51.376;7.148;2023-04-25T06:45:34;16.93;;;6.70;;
10277;SDS011;5184;51.376;7.148;2023-04-25T06:48:00;16.87;;;6.73;;
10277;SDS011;5184;51.376;7.148;2023-04-25T06:50:28;18.43;;;8.53;;
10277;SDS011;5184;51.376;7.148;2023-04-25T06:52:55;14.97;;;7.37;;
10277;SDS011;5184;51.376;7.148;2023-04-25T06:55:23;15.73;;;8.00;;
10277;SDS011;5184;51.376;7.148;2023-04-25T06:57:50;13.53;;;6.93;;
10277;SDS011;5184;51.376;7.148;2023-04-25T07:00:17;16.23;;;7.57;;
10277;SDS011;5184;51.376;7.148;2023-04-25T07:02:45;19.40;;;8.20;;
10277;SDS011;5184;51.376;7.148;2023-04-25T07:05:12;15.40;;;7.77;;
10277;SDS011;5184;51.376;7.148;2023-04-25T07:07:39;13.97;;;6.57;;
10277;SDS011;5184;51.376;7.148;2023-04-25T07:10:06;16.63;;;6.80;;
10277;SDS011;5184;51.376;7.148;2023-04-25T07:12:32;14.07;;;5.70;;
10277;SDS011;5184;51.376;7.148;2023-04-25T07:14:59;14.67;;;5.73;;
10277;SDS011;5184;51.376;7.148;2023-04-25T07:17:25;13.60;;;5.50;;
10277;SDS011;5184;51.376;7.148;2023-04-25T07:19:52;11.33;;;5.27;;
10277;SDS011;5184;51.376;7.148;2023-04-25T07:22:19;15.83;;;5.13;;
10277;SDS011;5184;51.376;7.148;2023-04-25T07:24:45;11.20;;;4.03;;
10277;SDS011;5184;51.376;7.148;2023-04-25T07:27:13;10.87;;;3.90;;
10277;SDS011;5184;51.376;7.148;2023-04-25T07:29:40;5.60;;;2.90;;
10277;SDS011;5184;51.376;7.148;2023-04-25T07:32:07;9.47;;;3.10;;
10277;SDS011;5184;51.376;7.148;2023-04-25T07:34:34;9.70;;;3.57;;
10277;SDS011;5184;51.376;7.148;2023-04-25T07:37:00;8.17;;;2.97;;
10277;SDS011;5184;51.376;7.148;2023-04-25T07:39:27;7.57;;;2.67;;
10277;SDS011;5184;51.376;7.148;2023-04-25T07:41:54;8.57;;;2.57;;
10277;SDS011;5184;51.376;7.148;2023-04-25T07:44:20;4.33;;;2.37;;
10277;SDS011;5184;51.376;7.148;2023-04-25T07:46:47;6.50;;;2.90;;
10277;SDS011;5184;51.376;7.148;2023-04-25T07:49:13;7.33;;;2.90;;
10277;SDS011;5184;51.376;7.148;2023-04-25T07:51:41;4.87;;;2.50;;
10277;SDS011;5184;51.376;7.148;2023-04-25T07:54:07;6.23;;;2.60;;
10277;SDS011;5184;51.376;7.148;2023-04-25T07:56:34;6.47;;;2.60;;
10277;SDS011;5184;51.376;7.148;2023-04-25T07:59:01;9.37;;;2.97;;
10277;SDS011;5184;51.376;7.148;2023-04-25T08:01:29;8.47;;;3.20;;
10277;SDS011;5184;51.376;7.148;2023-04-25T08:03:56;10.30;;;3.27;;
10277;SDS011;5184;51.376;7.148;2023-04-25T08:06:23;6.60;;;3.30;;
10277;SDS011;5184;51.376;7.148;2023-04-25T08:08:51;9.60;;;3.20;;
10277;SDS011;5184;51.376;7.148;2023-04-25T08:11:17;11.67;;;3.20;;
10277;SDS011;5184;51.376;7.148;2023-04-25T08:13:44;8.13;;;2.80;;
10277;SDS011;5184;51.376;7.148;2023-04-25T08:16:10;9.60;;;3.43;;
10277;SDS011;5184;51.376;7.148;2023-04-25T08:18:38;7.87;;;3.40;;
10277;SDS011;5184;51.376;7.148;2023-04-25T08:21:05;9.77;;;3.17;;
10277;SDS011;5184;51.376;7.148;2023-04-25T08:23:33;8.93;;;3.23;;
10277;SDS011;5184;51.376;7.148;2023-04-25T08:26:00;10.90;;;2.97;;
10277;SDS011;5184;51.376;7.148;2023-04-25T08:28:27;7.83;;;2.43;;
10277;SDS011;5184;51.376;7.148;2023-04-25T08:30:55;5.80;;;3.00;;
10277;SDS011;5184;51.376;7.148;2023-04-25T08:33:22;7.53;;;3.20;;
10277;SDS011;5184;51.376;7.148;2023-04-25T08:35:49;11.77;;;2.97;;
10277;SDS011;5184;51.376;7.148;2023-04-25T08:38:16;10.50;;;2.90;;
10277;SDS011;5184;51.376;7.148;2023-04-25T08:40:43;7.63;;;2.80;;
10277;SDS011;5184;51.376;7.148;2023-04-25T08:43:09;7.17;;;2.57;;
10277;SDS011;5184;51.376;7.148;2023-04-25T08:45:39;8.70;;;2.50;;
10277;SDS011;5184;51.376;7.148;2023-04-25T08:48:06;5.07;;;1.97;;
10277;SDS011;5184;51.376;7.148;2023-04-25T08:50:33;9.03;;;2.73;;
10277;SDS011;5184;51.376;7.148;2023-04-25T08:53:00;5.83;;;2.23;;
10277;SDS011;5184;51.376;7.148;2023-04-25T08:55:27;8.37;;;2.37;;
10277;SDS011;5184;51.376;7.148;2023-04-25T08:57:55;6.47;;;2.50;;
10277;SDS011;5184;51.376;7.148;2023-04-25T09:00:22;7.77;;;3.13;;
10277;SDS011;5184;51.376;7.148;2023-04-25T09:02:50;6.67;;;2.30;;
10277;SDS011;5184;51.376;7.148;2023-04-25T09:05:16;5.83;;;2.37;;
10277;SDS011;5184;51.376;7.148;2023-04-25T09:07:43;8.43;;;2.43;;
10277;SDS011;5184;51.376;7.148;2023-04-25T09:10:09;3.83;;;2.20;;
10277;SDS011;5184;51.376;7.148;2023-04-25T09:12:36;8.83;;;2.57;;
10277;SDS011;5184;51.376;7.148;2023-04-25T09:15:04;5.43;;;2.03;;
10277;SDS011;5184;51.376;7.148;2023-04-25T09:17:32;6.93;;;2.73;;
10277;SDS011;5184;51.376;7.148;2023-04-25T09:22:31;6.40;;;2.63;;
10277;SDS011;5184;51.376;7.148;2023-04-25T09:24:58;9.40;;;2.70;;
10277;SDS011;5184;51.376;7.148;2023-04-25T09:27:25;7.90;;;2.67;;
10277;SDS011;5184;51.376;7.148;2023-04-25T09:29:57;6.03;;;2.13;;
10277;SDS011;5184;51.376;7.148;2023-04-25T09:32:23;8.23;;;2.57;;
10277;SDS011;5184;51.376;7.148;2023-04-25T09:34:52;6.47;;;2.97;;
10277;SDS011;5184;51.376;7.148;2023-04-25T09:37:19;8.30;;;2.43;;
10277;SDS011;5184;51.376;7.148;2023-04-25T09:39:45;8.07;;;2.50;;
10277;SDS011;5184;51.376;7.148;2023-04-25T09:42:12;7.50;;;2.77;;
10277;SDS011;5184;51.376;7.148;2023-04-25T09:44:41;7.90;;;2.40;;
10277;SDS011;5184;51.376;7.148;2023-04-25T09:47:07;7.57;;;2.70;;
10277;SDS011;5184;51.376;7.148;2023-04-25T09:49:32;4.47;;;2.20;;
10277;SDS011;5184;51.376;7.148;2023-04-25T09:51:59;4.67;;;1.90;;
10277;SDS011;5184;51.376;7.148;2023-04-25T09:54:26;5.70;;;2.20;;
10277;SDS011;5184;51.376;7.148;2023-04-25T09:56:53;4.73;;;2.30;;
10277;SDS011;5184;51.376;7.148;2023-04-25T09:59:20;7.87;;;2.13;;
10277;SDS011;5184;51.376;7.148;2023-04-25T10:01:46;7.77;;;2.47;;
10277;SDS011;5184;51.376;7.148;2023-04-25T10:04:13;7.50;;;2.33;;
10277;SDS011;5184;51.376;7.148;2023-04-25T10:06:41;5.13;;;2.27;;
10277;SDS011;5184;51.376;7.148;2023-04-25T10:09:07;5.73;;;2.20;;
10277;SDS011;5184;51.376;7.148;2023-04-25T10:11:34;7.13;;;2.10;;
10277;SDS011;5184;51.376;7.148;2023-04-25T10:14:01;7.77;;;2.27;;
10277;SDS011;5184;51.376;7.148;2023-04-25T10:16:27;7.50;;;2.30;;
10277;SDS011;5184;51.376;7.148;2023-04-25T10:18:55;8.03;;;2.10;;
10277;SDS011;5184;51.376;7.148;2023-04-25T10:21:22;5.63;;;1.90;;
10277;SDS011;5184;51.376;7.148;2023-04-25T10:23:49;6.97;;;1.93;;
10277;SDS011;5184;51.376;7.148;2023-04-25T10:26:17;6.73;;;1.87;;
10277;SDS011;5184;51.376;7.148;2023-04-25T10:31:30;7.03;;;2.33;;
10277;SDS011;5184;51.376;7.148;2023-04-25T10:33:57;6.93;;;1.90;;
10277;SDS011;5184;51.376;7.148;2023-04-25T10:36:24;4.40;;;1.90;;
10277;SDS011;5184;51.376;7.148;2023-04-25T10:38:50;4.57;;;2.00;;
10277;SDS011;5184;51.376;7.148;2023-04-25T10:41:18;5.27;;;2.30;;
10277;SDS011;5184;51.376;7.148;2023-04-25T10:43:45;5.80;;;2.10;;
10277;SDS011;5184;51.376;7.148;2023-04-25T10:46:17;7.87;;;2.63;;
10277;SDS011;5184;51.376;7.148;2023-04-25T10:48:45;4.13;;;1.90;;
10277;SDS011;5184;51.376;7.148;2023-04-25T10:51:12;4.03;;;2.00;;
10277;SDS011;5184;51.376;7.148;2023-04-25T10:53:38;5.00;;;1.80;;
10277;SDS011;5184;51.376;7.148;2023-04-25T10:56:10;3.73;;;1.90;;
10277;SDS011;5184;51.376;7.148;2023-04-25T10:58:36;4.13;;;1.80;;
10277;SDS011;5184;51.376;7.148;2023-04-25T11:01:03;5.23;;;2.27;;
10277;SDS011;5184;51.376;7.148;2023-04-25T11:03:30;4.90;;;1.60;;
10277;SDS011;5184;51.376;7.148;2023-04-25T11:05:58;5.57;;;2.03;;
10277;SDS011;5184;51.376;7.148;2023-04-25T11:08:32;4.63;;;1.93;;
10277;SDS011;5184;51.376;7.148;2023-04-25T11:10:54;3.40;;;1.70;;
10277;SDS011;5184;51.376;7.148;2023-04-25T11:13:20;5.17;;;1.90;;
10277;SDS011;5184;51.376;7.148;2023-04-25T11:15:51;3.53;;;1.77;;
10277;SDS011;5184;51.376;7.148;2023-04-25T11:18:15;4.50;;;1.57;;
10277;SDS011;5184;51.376;7.148;2023-04-25T11:20:43;5.40;;;1.80;;
10277;SDS011;5184;51.376;7.148;2023-04-25T11:23:09;7.83;;;2.13;;
10277;SDS011;5184;51.376;7.148;2023-04-25T11:25:36;7.73;;;2.13;;
10277;SDS011;5184;51.376;7.148;2023-04-25T11:28:04;3.00;;;1.77;;
10277;SDS011;5184;51.376;7.148;2023-04-25T11:30:31;4.37;;;2.20;;
10277;SDS011;5184;51.376;7.148;2023-04-25T11:32:58;4.90;;;2.00;;
10277;SDS011;5184;51.376;7.148;2023-04-25T11:35:26;5.83;;;1.83;;
10277;SDS011;5184;51.376;7.148;2023-04-25T11:37:53;4.97;;;2.07;;
10277;SDS011;5184;51.376;7.148;2023-04-25T11:40:20;5.30;;;2.27;;
10277;SDS011;5184;51.376;7.148;2023-04-25T11:42:48;5.60;;;2.23;;
10277;SDS011;5184;51.376;7.148;2023-04-25T11:45:15;5.33;;;2.00;;
10277;SDS011;5184;51.376;7.148;2023-04-25T11:47:43;7.67;;;2.40;;
10277;SDS011;5184;51.376;7.148;2023-04-25T11:50:09;6.20;;;2.23;;
10277;SDS011;5184;51.376;7.148;2023-04-25T11:52:36;6.00;;;2.03;;
10277;SDS011;5184;51.376;7.148;2023-04-25T11:55:04;6.23;;;2.33;;
10277;SDS011;5184;51.376;7.148;2023-04-25T11:57:30;5.77;;;2.23;;
10277;SDS011;5184;51.376;7.148;2023-04-25T12:00:04;5.27;;;2.03;;
10277;SDS011;5184;51.376;7.148;2023-04-25T12:02:24;3.50;;;1.90;;
10277;SDS011;5184;51.376;7.148;2023-04-25T12:04:50;5.83;;;2.20;;
10277;SDS011;5184;51.376;7.148;2023-04-25T12:07:17;7.97;;;2.40;;
10277;SDS011;5184;51.376;7.148;2023-04-25T12:09:43;5.60;;;1.80;;
10277;SDS011;5184;51.376;7.148;2023-04-25T12:12:10;6.27;;;2.10;;
10277;SDS011;5184;51.376;7.148;2023-04-25T12:14:37;6.40;;;2.30;;
10277;SDS011;5184;51.376;7.148;2023-04-25T12:17:03;4.03;;;2.10;;
10277;SDS011;5184;51.376;7.148;2023-04-25T12:19:34;4.97;;;1.70;;
10277;SDS011;5184;51.376;7.148;2023-04-25T12:22:01;6.10;;;2.00;;
10277;SDS011;5184;51.376;7.148;2023-04-25T12:24:28;3.40;;;2.07;;
10277;SDS011;5184;51.376;7.148;2023-04-25T12:26:59;4.83;;;2.17;;
10277;SDS011;5184;51.376;7.148;2023-04-25T12:29:26;7.23;;;2.37;;
10277;SDS011;5184;51.376;7.148;2023-04-25T12:31:53;4.97;;;1.93;;
10277;SDS011;5184;51.376;7.148;2023-04-25T12:34:19;5.63;;;2.10;;
10277;SDS011;5184;51.376;7.148;2023-04-25T12:36:46;4.87;;;2.50;;
10277;SDS011;5184;51.376;7.148;2023-04-25T12:39:14;6.90;;;2.33;;
10277;SDS011;5184;51.376;7.148;2023-04-25T12:41:43;6.00;;;2.10;;
10277;SDS011;5184;51.376;7.148;2023-04-25T12:44:09;5.50;;;2.53;;
10277;SDS011;5184;51.376;7.148;2023-04-25T12:46:36;4.13;;;2.20;;
10277;SDS011;5184;51.376;7.148;2023-04-25T12:49:02;3.40;;;1.73;;
10277;SDS011;5184;51.376;7.148;2023-04-25T12:51:29;3.90;;;1.93;;
10277;SDS011;5184;51.376;7.148;2023-04-25T12:53:55;4.30;;;2.10;;
10277;SDS011;5184;51.376;7.148;2023-04-25T12:56:22;7.57;;;2.00;;
10277;SDS011;5184;51.376;7.148;2023-04-25T12:58:48;6.30;;;2.50;;
10277;SDS011;5184;51.376;7.148;2023-04-25T13:01:16;5.63;;;2.40;;
10277;SDS011;5184;51.376;7.148;2023-04-25T13:03:43;3.60;;;1.83;;
10277;SDS011;5184;51.376;7.148;2023-04-25T13:06:10;3.57;;;1.73;;
10277;SDS011;5184;51.376;7.148;2023-04-25T13:08:38;3.93;;;1.50;;
10277;SDS011;5184;51.376;7.148;2023-04-25T13:11:05;4.93;;;1.67;;
10277;SDS011;5184;51.376;7.148;2023-04-25T13:13:32;3.73;;;1.77;;
10277;SDS011;5184;51.376;7.148;2023-04-25T13:16:01;3.17;;;1.50;;
10277;SDS011;5184;51.376;7.148;2023-04-25T13:18:27;3.00;;;1.50;;
10277;SDS011;5184;51.376;7.148;2023-04-25T13:20:53;3.93;;;1.73;;
10277;SDS011;5184;51.376;7.148;2023-04-25T13:23:20;5.10;;;2.13;;
10277;SDS011;5184;51.376;7.148;2023-04-25T13:25:48;2.87;;;1.93;;
10277;SDS011;5184;51.376;7.148;2023-04-25T13:28:15;3.13;;;1.63;;
10277;SDS011;5184;51.376;7.148;2023-04-25T13:30:43;3.03;;;1.60;;
10277;SDS011;5184;51.376;7.148;2023-04-25T13:33:09;4.17;;;2.10;;
10277;SDS011;5184;51.376;7.148;2023-04-25T13:35:37;3.03;;;1.70;;
10277;SDS011;5184;51.376;7.148;2023-04-25T13:38:03;6.33;;;2.20;;
10277;SDS011;5184;51.376;7.148;2023-04-25T13:40:30;3.73;;;1.67;;
10277;SDS011;5184;51.376;7.148;2023-04-25T13:42:56;3.63;;;1.70;;
10277;SDS011;5184;51.376;7.148;2023-04-25T13:45:23;3.03;;;1.50;;
10277;SDS011;5184;51.376;7.148;2023-04-25T13:47:50;5.87;;;1.50;;
10277;SDS011;5184;51.376;7.148;2023-04-25T13:50:18;3.97;;;1.80;;
10277;SDS011;5184;51.376;7.148;2023-04-25T13:52:45;4.50;;;1.73;;
10277;SDS011;5184;51.376;7.148;2023-04-25T13:55:12;2.27;;;1.50;;
10277;SDS011;5184;51.376;7.148;2023-04-25T13:57:40;4.73;;;1.73;;
10277;SDS011;5184;51.376;7.148;2023-04-25T14:00:07;4.30;;;2.00;;
10277;SDS011;5184;51.376;7.148;2023-04-25T14:02:36;3.73;;;1.87;;
10277;SDS011;5184;51.376;7.148;2023-04-25T14:05:03;6.50;;;2.10;;
10277;SDS011;5184;51.376;7.148;2023-04-25T14:07:30;2.53;;;1.53;;
10277;SDS011;5184;51.376;7.148;2023-04-25T14:09:57;5.70;;;1.90;;
10277;SDS011;5184;51.376;7.148;2023-04-25T14:12:24;3.23;;;2.03;;
10277;SDS011;5184;51.376;7.148;2023-04-25T14:14:51;3.40;;;1.80;;
10277;SDS011;5184;51.376;7.148;2023-04-25T14:17:18;3.17;;;1.63;;
10277;SDS011;5184;51.376;7.148;2023-04-25T14:19:44;4.37;;;2.00;;
10277;SDS011;5184;51.376;7.148;2023-04-25T14:22:11;5.30;;;1.90;;
10277;SDS011;5184;51.376;7.148;2023-04-25T14:24:38;4.73;;;1.70;;
10277;SDS011;5184;51.376;7.148;2023-04-25T14:27:05;4.17;;;1.60;;
10277;SDS011;5184;51.376;7.148;2023-04-25T14:29:32;3.83;;;2.13;;
10277;SDS011;5184;51.376;7.148;2023-04-25T14:31:59;4.17;;;1.70;;
10277;SDS011;5184;51.376;7.148;2023-04-25T14:34:27;3.40;;;2.20;;
10277;SDS011;5184;51.376;7.148;2023-04-25T14:36:54;3.80;;;1.60;;
10277;SDS011;5184;51.376;7.148;2023-04-25T14:39:21;3.87;;;1.77;;
10277;SDS011;5184;51.376;7.148;2023-04-25T14:41:48;6.47;;;2.53;;
10277;SDS011;5184;51.376;7.148;2023-04-25T14:44:15;3.07;;;1.77;;
10277;SDS011;5184;51.376;7.148;2023-04-25T14:46:41;3.37;;;1.30;;
10277;SDS011;5184;51.376;7.148;2023-04-25T14:49:08;4.63;;;1.50;;
10277;SDS011;5184;51.376;7.148;2023-04-25T14:51:34;2.70;;;1.40;;
10277;SDS011;5184;51.376;7.148;2023-04-25T14:54:02;3.00;;;1.90;;
10277;SDS011;5184;51.376;7.148;2023-04-25T14:56:28;3.53;;;1.30;;